createdAt,value
2022-08-21T00:00:32.741Z,16.20
2022-08-21T00:03:05.381Z,16.10
2022-08-21T00:05:34.578Z,16.10
2022-08-21T00:08:02.735Z,16.00
2022-08-21T00:10:31.286Z,16.00
2022-08-21T00:12:59.578Z,16.00
2022-08-21T00:15:30.346Z,16.00
2022-08-21T00:17:59.890Z,16.00
2022-08-21T00:20:29.673Z,15.90
2022-08-21T00:22:57.995Z,15.90
2022-08-21T00:25:26.470Z,15.90
2022-08-21T00:27:55.223Z,15.90
2022-08-21T00:30:24.913Z,15.90
2022-08-21T00:32:53.822Z,15.90
2022-08-21T00:35:24.231Z,15.80
2022-08-21T00:37:53.718Z,15.80
2022-08-21T00:40:25.883Z,15.80
2022-08-21T00:42:54.214Z,15.80
2022-08-21T00:45:23.505Z,15.70
2022-08-21T00:47:52.033Z,15.70
2022-08-21T00:50:22.151Z,15.70
2022-08-21T00:52:53.741Z,15.60
2022-08-21T00:55:24.155Z,15.60
2022-08-21T00:57:55.898Z,15.60
2022-08-21T01:00:31.216Z,15.50
2022-08-21T01:03:00.404Z,15.50
2022-08-21T01:05:28.567Z,15.50
2022-08-21T01:07:58.941Z,15.40
2022-08-21T01:10:27.450Z,15.40
2022-08-21T01:12:57.764Z,15.40
2022-08-21T01:15:29.775Z,15.40
2022-08-21T01:17:57.988Z,15.40
2022-08-21T01:20:32.449Z,15.30
2022-08-21T01:23:02.629Z,15.30
2022-08-21T01:25:31.263Z,15.30
2022-08-21T01:28:02.411Z,15.30
2022-08-21T01:30:30.969Z,15.30
2022-08-21T01:32:59.762Z,15.20
2022-08-21T01:35:30.930Z,15.30
2022-08-21T01:37:59.027Z,15.30
2022-08-21T01:40:28.627Z,15.30
2022-08-21T01:42:56.767Z,15.20
2022-08-21T01:45:25.376Z,15.10
2022-08-21T01:47:53.503Z,15.10
2022-08-21T01:50:22.225Z,15.10
2022-08-21T01:52:51.398Z,15.00
2022-08-21T01:55:20.272Z,15.00
2022-08-21T01:57:50.528Z,15.10
2022-08-21T02:00:23.790Z,15.00
2022-08-21T02:02:52.497Z,15.00
2022-08-21T02:05:21.591Z,15.00
2022-08-21T02:07:52.433Z,15.00
2022-08-21T02:10:23.510Z,14.90
2022-08-21T02:12:52.975Z,14.90
2022-08-21T02:15:21.457Z,14.90
2022-08-21T02:17:52.053Z,14.90
2022-08-21T02:20:24.095Z,14.80
2022-08-21T02:22:52.218Z,14.80
2022-08-21T02:25:22.259Z,14.80
2022-08-21T02:27:52.073Z,14.80
2022-08-21T02:30:24.897Z,14.80
2022-08-21T02:32:53.110Z,14.80
2022-08-21T02:35:22.331Z,14.70
2022-08-21T02:37:53.968Z,14.70
2022-08-21T02:40:24.294Z,14.70
2022-08-21T02:42:53.948Z,14.70
2022-08-21T02:45:22.750Z,14.70
2022-08-21T02:47:52.977Z,14.70
2022-08-21T02:50:23.358Z,14.60
2022-08-21T02:52:55.177Z,14.60
2022-08-21T02:55:24.560Z,14.60
2022-08-21T02:57:54.864Z,14.60
2022-08-21T03:05:53.755Z,14.50
2022-08-21T03:08:24.195Z,14.50
2022-08-21T03:10:55.986Z,14.50
2022-08-21T03:13:25.485Z,14.40
2022-08-21T03:15:53.577Z,14.40
2022-08-21T03:18:21.985Z,14.40
2022-08-21T03:20:50.835Z,14.40
2022-08-21T03:23:19.902Z,14.40
2022-08-21T03:25:49.373Z,14.40
2022-08-21T03:28:20.051Z,14.30
2022-08-21T03:30:51.676Z,14.30
2022-08-21T03:33:23.282Z,14.30
2022-08-21T03:36:01.682Z,14.30
2022-08-21T03:38:31.586Z,14.30
2022-08-21T03:41:00.666Z,14.30
2022-08-21T03:43:32.129Z,14.20
2022-08-21T03:46:03.006Z,14.20
2022-08-21T03:48:31.667Z,14.20
2022-08-21T03:50:59.843Z,14.30
2022-08-21T03:53:28.168Z,14.20
2022-08-21T03:55:56.316Z,14.20
2022-08-21T03:58:27.538Z,14.20
2022-08-21T04:00:59.538Z,14.20
2022-08-21T04:03:29.711Z,14.20
2022-08-21T04:05:58.117Z,14.20
2022-08-21T04:08:26.377Z,14.20
2022-08-21T04:10:57.446Z,14.20
2022-08-21T04:13:25.608Z,14.20
2022-08-21T04:15:53.679Z,14.10
2022-08-21T04:18:21.741Z,14.10
2022-08-21T04:20:53.604Z,14.10
2022-08-21T04:23:24.546Z,14.10
2022-08-21T04:25:53.200Z,14.10
2022-08-21T04:28:21.586Z,14.20
2022-08-21T04:30:53.072Z,14.10
2022-08-21T04:33:21.570Z,14.10
2022-08-21T04:35:51.650Z,14.20
2022-08-21T04:38:20.496Z,14.10
2022-08-21T04:40:50.382Z,14.20
2022-08-21T04:43:19.204Z,14.10
2022-08-21T04:45:50.137Z,14.10
2022-08-21T04:48:23.122Z,14.10
2022-08-21T04:50:56.279Z,14.10
2022-08-21T04:53:30.370Z,14.10
2022-08-21T04:56:03.319Z,14.10
2022-08-21T04:58:31.955Z,14.20
2022-08-21T05:01:01.843Z,14.20
2022-08-21T05:03:32.471Z,14.20
2022-08-21T05:06:05.201Z,14.30
2022-08-21T05:08:36.010Z,14.30
2022-08-21T05:11:06.519Z,14.40
2022-08-21T05:13:34.718Z,14.40
2022-08-21T05:16:02.852Z,14.40
2022-08-21T05:18:30.977Z,14.50
2022-08-21T05:20:59.143Z,14.50
2022-08-21T05:23:28.791Z,14.60
2022-08-21T05:25:57.201Z,14.60
2022-08-21T05:28:25.354Z,14.70
2022-08-21T05:30:55.487Z,14.70
2022-08-21T05:33:23.727Z,14.80
2022-08-21T05:35:53.436Z,14.90
2022-08-21T05:38:21.658Z,15.00
2022-08-21T05:40:51.244Z,15.00
2022-08-21T05:43:19.459Z,15.00
2022-08-21T05:45:48.468Z,15.10
2022-08-21T05:48:19.543Z,15.10
2022-08-21T05:50:49.135Z,15.20
2022-08-21T05:53:18.875Z,15.30
2022-08-21T05:55:48.044Z,15.30
2022-08-21T05:58:19.568Z,15.40
2022-08-21T06:00:49.215Z,15.50
2022-08-21T06:03:19.238Z,15.70
2022-08-21T06:05:47.482Z,15.80
2022-08-21T06:08:15.752Z,15.90
2022-08-21T06:10:44.502Z,16.00
2022-08-21T06:13:13.118Z,16.40
2022-08-21T06:15:42.698Z,18.40
2022-08-21T06:18:10.870Z,20.50
2022-08-21T06:20:39.248Z,22.30
2022-08-21T06:23:07.631Z,23.50
2022-08-21T06:25:35.988Z,24.30
2022-08-21T06:28:05.897Z,25.40
2022-08-21T06:30:34.395Z,26.10
2022-08-21T06:33:04.372Z,26.10
2022-08-21T06:35:32.738Z,25.40
2022-08-21T06:38:01.037Z,26.20
2022-08-21T06:40:30.141Z,26.80
2022-08-21T06:42:59.459Z,27.20
2022-08-21T06:45:32.405Z,27.40
2022-08-21T06:48:00.953Z,27.60
2022-08-21T06:50:31.216Z,27.60
2022-08-21T06:53:04.528Z,27.50
2022-08-21T06:55:32.958Z,27.50
2022-08-21T06:58:01.296Z,27.70
2022-08-21T07:00:29.520Z,27.80
2022-08-21T07:02:58.021Z,28.30
2022-08-21T07:05:27.954Z,28.80
2022-08-21T07:07:58.040Z,28.90
2022-08-21T07:10:26.831Z,28.80
2022-08-21T07:13:01.205Z,29.30
2022-08-21T07:15:30.831Z,28.80
2022-08-21T07:18:00.256Z,29.30
2022-08-21T07:20:29.349Z,28.90
2022-08-21T07:23:00.992Z,29.50
2022-08-21T07:25:29.433Z,29.80
2022-08-21T07:27:57.627Z,30.00
2022-08-21T07:30:26.205Z,29.50
2022-08-21T07:32:54.493Z,28.80
2022-08-21T07:35:24.019Z,29.80
2022-08-21T07:37:52.326Z,29.70
2022-08-21T07:40:22.101Z,29.20
2022-08-21T07:42:52.660Z,29.50
2022-08-21T07:45:22.555Z,30.30
2022-08-21T07:47:54.248Z,30.10
2022-08-21T07:50:25.598Z,30.10
2022-08-21T07:52:53.828Z,30.10
2022-08-21T07:55:23.995Z,30.20
2022-08-21T07:57:52.509Z,30.10
2022-08-21T08:00:24.278Z,29.60
2022-08-21T08:02:54.113Z,28.80
2022-08-21T08:05:25.040Z,27.60
2022-08-21T08:07:53.484Z,26.70
2022-08-21T08:10:24.969Z,26.00
2022-08-21T08:12:55.648Z,26.20
2022-08-21T08:15:26.375Z,26.90
2022-08-21T08:17:55.848Z,27.70
2022-08-21T08:20:26.036Z,28.90
2022-08-21T08:22:54.530Z,29.60
2022-08-21T08:25:26.212Z,30.60
2022-08-21T08:27:54.574Z,30.60
2022-08-21T08:30:24.715Z,29.80
2022-08-21T08:32:52.959Z,29.80
2022-08-21T08:35:22.385Z,29.70
2022-08-21T08:37:53.196Z,30.40
2022-08-21T08:40:30.347Z,30.50
2022-08-21T08:42:58.868Z,30.80
2022-08-21T08:45:28.285Z,30.80
2022-08-21T08:48:00.236Z,30.90
2022-08-21T08:50:34.040Z,30.60
2022-08-21T08:53:06.123Z,30.50
2022-08-21T08:55:38.482Z,30.00
2022-08-21T08:58:07.048Z,30.90
2022-08-21T09:00:35.774Z,31.30
2022-08-21T09:03:05.201Z,31.10
2022-08-21T09:05:43.113Z,31.00
2022-08-21T09:08:30.981Z,30.40
2022-08-21T09:11:06.019Z,29.80
2022-08-21T09:13:50.441Z,29.10
2022-08-21T09:16:30.070Z,28.80
2022-08-21T09:19:06.282Z,29.20
2022-08-21T09:21:45.222Z,29.50
2022-08-21T09:24:28.063Z,30.20
2022-08-21T09:27:05.755Z,30.30
2022-08-21T09:29:36.605Z,30.50
2022-08-21T09:32:11.921Z,30.80
2022-08-21T09:34:42.473Z,29.90
2022-08-21T09:37:18.665Z,29.40
2022-08-21T09:39:48.915Z,29.90
2022-08-21T09:42:25.457Z,29.80
2022-08-21T09:45:08.966Z,29.30
2022-08-21T09:47:40.048Z,28.80
2022-08-21T09:50:15.121Z,29.00
2022-08-21T09:52:52.219Z,29.30
2022-08-21T09:55:51.699Z,29.40
2022-08-21T09:58:23.009Z,29.80
2022-08-21T10:01:00.913Z,30.00
2022-08-21T10:03:29.834Z,30.00
2022-08-21T10:06:02.828Z,29.30
2022-08-21T10:08:33.639Z,29.40
2022-08-21T10:11:07.654Z,29.60
2022-08-21T10:13:47.766Z,29.30
2022-08-21T10:16:27.572Z,29.80
2022-08-21T10:19:12.151Z,29.30
2022-08-21T10:21:54.347Z,28.80
2022-08-21T10:24:32.149Z,29.00
2022-08-21T10:27:21.678Z,28.90
2022-08-21T10:29:57.224Z,28.90
2022-08-21T10:32:48.426Z,29.40
2022-08-21T10:35:24.123Z,30.20
2022-08-21T10:38:39.283Z,29.90
2022-08-21T10:41:16.107Z,29.00
2022-08-21T10:43:52.901Z,28.90
2022-08-21T10:46:30.897Z,28.70
2022-08-21T10:49:04.388Z,28.40
2022-08-21T10:51:39.261Z,28.60
2022-08-21T10:54:13.482Z,28.20
2022-08-21T10:56:44.006Z,28.50
2022-08-21T10:59:27.733Z,28.30
2022-08-21T11:02:02.712Z,27.60
2022-08-21T11:04:49.298Z,27.50
2022-08-21T11:07:24.705Z,28.00
2022-08-21T11:09:56.407Z,27.70
2022-08-21T11:12:29.961Z,27.90
2022-08-21T11:15:02.860Z,28.10
2022-08-21T11:17:38.966Z,27.60
2022-08-21T11:20:12.048Z,27.90
2022-08-21T11:22:46.076Z,28.10
2022-08-21T11:25:25.692Z,28.40
2022-08-21T11:28:05.661Z,28.50
2022-08-21T11:30:46.526Z,28.20
2022-08-21T11:33:30.777Z,28.10
2022-08-21T11:36:05.258Z,27.80
2022-08-21T11:38:41.532Z,26.80
2022-08-21T11:41:25.609Z,26.30
2022-08-21T11:44:00.721Z,26.60
2022-08-21T11:46:39.680Z,26.60
2022-08-21T11:49:23.740Z,26.40
2022-08-21T11:51:59.489Z,26.20
2022-08-21T12:02:14.763Z,26.70
2022-08-21T12:04:49.697Z,27.00
2022-08-21T12:07:20.291Z,27.40
2022-08-21T12:09:58.353Z,27.30
2022-08-21T12:12:30.811Z,27.30
2022-08-21T12:15:18.101Z,27.70
2022-08-21T12:17:57.596Z,27.50
2022-08-21T12:20:50.093Z,27.70
2022-08-21T12:23:28.215Z,27.60
2022-08-21T12:26:22.529Z,27.50
2022-08-21T12:28:50.816Z,27.70
2022-08-21T12:31:25.102Z,27.10
2022-08-21T12:33:57.788Z,26.80
2022-08-21T12:36:34.820Z,26.50
2022-08-21T12:39:13.435Z,26.40
2022-08-21T12:41:48.532Z,26.60
2022-08-21T12:44:19.009Z,26.70
2022-08-21T12:46:53.327Z,26.20
2022-08-21T12:49:29.399Z,26.00
2022-08-21T12:52:11.318Z,26.10
2022-08-21T12:54:43.609Z,25.70
2022-08-21T12:57:21.127Z,25.50
2022-08-21T12:59:55.391Z,25.90
2022-08-21T13:02:26.825Z,26.10
2022-08-21T13:04:56.339Z,26.50
2022-08-21T13:07:30.109Z,26.30
2022-08-21T13:10:03.913Z,26.10
2022-08-21T13:12:32.944Z,25.90
2022-08-21T13:15:08.717Z,25.60
2022-08-21T13:17:40.849Z,25.60
2022-08-21T13:20:12.441Z,25.60
2022-08-21T13:22:45.346Z,25.90
2022-08-21T13:25:14.900Z,26.40
2022-08-21T13:27:43.778Z,26.50
2022-08-21T13:30:15.735Z,26.30
2022-08-21T13:32:46.306Z,26.10
2022-08-21T13:35:18.531Z,26.10
2022-08-21T13:37:50.770Z,26.20
2022-08-21T13:40:21.982Z,26.10
2022-08-21T13:42:50.880Z,26.00
2022-08-21T13:45:26.006Z,26.00
2022-08-21T13:47:55.298Z,26.10
2022-08-21T13:50:26.828Z,26.00
2022-08-21T13:53:03.861Z,25.90
2022-08-21T13:55:40.797Z,25.80
2022-08-21T13:58:09.635Z,25.80
2022-08-21T14:00:47.101Z,25.80
2022-08-21T14:03:30.616Z,25.60
2022-08-21T14:06:00.371Z,25.50
2022-08-21T14:08:35.250Z,25.90
2022-08-21T14:11:06.013Z,26.30
2022-08-21T14:13:41.544Z,26.30
2022-08-21T14:16:19.802Z,25.70
2022-08-21T14:18:50.881Z,25.70
2022-08-21T14:21:31.180Z,25.70
2022-08-21T14:24:10.201Z,25.70
2022-08-21T14:26:46.486Z,25.80
2022-08-21T14:29:17.015Z,25.70
2022-08-21T14:31:45.912Z,25.60
2022-08-21T14:34:19.703Z,25.50
2022-08-21T14:36:48.938Z,25.60
2022-08-21T14:39:18.706Z,25.50
2022-08-21T14:41:49.535Z,25.40
2022-08-21T14:44:18.903Z,25.60
2022-08-21T14:46:56.466Z,25.90
2022-08-21T14:49:27.307Z,26.20
2022-08-21T14:51:58.242Z,26.50
2022-08-21T14:54:30.700Z,26.70
2022-08-21T14:57:01.976Z,26.70
2022-08-21T14:59:30.421Z,26.70
2022-08-21T15:01:58.488Z,26.80
2022-08-21T15:04:26.560Z,26.50
2022-08-21T15:06:54.667Z,26.60
2022-08-21T15:09:22.734Z,26.40
2022-08-21T15:11:53.209Z,26.20
2022-08-21T15:14:23.754Z,25.90
2022-08-21T15:16:53.071Z,25.80
2022-08-21T15:19:21.803Z,25.90
2022-08-21T15:21:50.442Z,26.00
2022-08-21T15:24:18.783Z,26.00
2022-08-21T15:26:48.478Z,25.80
2022-08-21T15:29:22.913Z,26.00
2022-08-21T15:31:57.502Z,26.10
2022-08-21T15:34:27.097Z,26.30
2022-08-21T15:36:57.001Z,26.30
2022-08-21T15:39:31.273Z,26.10
2022-08-21T15:42:02.821Z,25.80
2022-08-21T15:44:41.074Z,25.70
2022-08-21T15:47:13.201Z,25.70
2022-08-21T15:49:43.693Z,25.60
2022-08-21T15:52:11.773Z,25.70
2022-08-21T15:54:39.864Z,25.60
2022-08-21T15:57:08.013Z,25.50
2022-08-21T15:59:44.867Z,25.20
2022-08-21T16:02:18.264Z,25.00
2022-08-21T16:04:46.359Z,24.90
2022-08-21T16:07:14.511Z,25.00
2022-08-21T16:09:42.607Z,25.00
2022-08-21T16:12:13.084Z,25.00
2022-08-21T16:14:41.328Z,25.00
2022-08-21T16:17:11.055Z,24.90
2022-08-21T16:19:39.682Z,24.70
2022-08-21T16:22:07.728Z,24.60
2022-08-21T16:24:36.594Z,24.50
2022-08-21T16:27:07.981Z,24.50
2022-08-21T16:29:39.589Z,24.50
2022-08-21T16:32:08.964Z,24.50
2022-08-21T16:34:47.124Z,24.20
2022-08-21T16:37:24.007Z,24.10
2022-08-21T16:39:53.231Z,24.10
2022-08-21T16:42:25.914Z,24.00
2022-08-21T16:44:54.876Z,24.00
2022-08-21T16:47:27.266Z,24.10
2022-08-21T16:49:57.239Z,23.80
2022-08-21T16:52:25.415Z,23.80
2022-08-21T16:54:53.458Z,23.70
2022-08-21T16:57:21.725Z,23.70
2022-08-21T16:59:49.806Z,23.60
2022-08-21T17:02:25.980Z,23.50
2022-08-21T17:04:54.002Z,23.50
2022-08-21T17:07:23.541Z,23.40
2022-08-21T17:09:51.969Z,23.30
2022-08-21T17:12:20.267Z,23.30
2022-08-21T17:14:49.332Z,23.20
2022-08-21T17:17:18.143Z,23.10
2022-08-21T17:19:46.655Z,23.10
2022-08-21T17:22:14.757Z,23.10
2022-08-21T17:24:44.174Z,23.10
2022-08-21T17:27:12.863Z,23.20
2022-08-21T17:29:42.437Z,23.20
2022-08-21T17:32:12.420Z,23.00
2022-08-21T17:34:41.491Z,23.10
2022-08-21T17:37:09.606Z,23.20
2022-08-21T17:39:37.786Z,23.10
2022-08-21T17:42:11.464Z,23.00
2022-08-21T17:44:41.371Z,23.00
2022-08-21T17:47:11.228Z,23.00
2022-08-21T17:49:39.350Z,23.10
2022-08-21T17:52:08.375Z,23.00
2022-08-21T17:54:37.199Z,22.90
2022-08-21T17:57:08.228Z,22.80
2022-08-21T17:59:36.276Z,22.70
2022-08-21T18:02:09.937Z,22.60
2022-08-21T18:04:50.414Z,22.60
2022-08-21T18:07:32.000Z,22.50
2022-08-21T18:10:01.022Z,22.40
2022-08-21T18:12:31.500Z,22.30
2022-08-21T18:15:00.053Z,22.30
2022-08-21T18:17:30.329Z,22.30
2022-08-21T18:19:59.643Z,22.30
2022-08-21T18:22:27.992Z,22.30
2022-08-21T18:24:56.065Z,22.30
2022-08-21T18:27:29.085Z,22.20
2022-08-21T18:30:01.276Z,22.20
2022-08-21T18:32:32.241Z,22.10
2022-08-21T18:35:02.290Z,22.00
2022-08-21T18:37:31.091Z,21.90
2022-08-21T18:40:00.704Z,21.90
2022-08-21T18:42:30.434Z,21.90
2022-08-21T18:45:03.161Z,21.80
2022-08-21T18:47:37.171Z,21.70
2022-08-21T18:50:05.746Z,21.70
2022-08-21T18:52:39.877Z,21.70
2022-08-21T18:55:22.607Z,21.70
2022-08-21T18:57:50.666Z,21.60
2022-08-21T19:00:24.303Z,21.50
2022-08-21T19:02:52.570Z,21.50
2022-08-21T19:11:02.448Z,21.40
2022-08-21T19:13:30.925Z,21.30
2022-08-21T19:16:03.895Z,21.30
2022-08-21T19:18:35.324Z,21.30
2022-08-21T19:21:03.780Z,21.20
2022-08-21T19:41:51.344Z,21.10
2022-08-21T19:44:23.093Z,21.00
2022-08-21T19:46:54.932Z,21.00
2022-08-21T19:49:27.437Z,21.00
2022-08-21T19:51:55.520Z,20.90
2022-08-21T19:54:26.636Z,21.00
2022-08-21T19:56:58.731Z,21.00
2022-08-21T19:59:32.749Z,20.90
2022-08-21T20:02:01.082Z,20.90
2022-08-21T20:04:30.983Z,20.90
2022-08-21T20:06:59.248Z,20.80
2022-08-21T20:09:27.460Z,20.80
2022-08-21T20:11:58.875Z,20.70
2022-08-21T20:17:20.601Z,20.60
2022-08-21T20:19:54.391Z,20.70
2022-08-21T20:22:24.129Z,20.60
2022-08-21T20:24:52.533Z,20.50
2022-08-21T20:27:25.545Z,20.50
2022-08-21T20:29:53.919Z,20.50
2022-08-21T20:32:22.718Z,20.50
2022-08-21T20:34:52.164Z,20.40
2022-08-21T20:37:39.274Z,20.30
2022-08-21T20:40:11.607Z,20.40
2022-08-21T20:42:44.886Z,20.30
2022-08-21T20:45:18.682Z,20.30
2022-08-21T20:50:41.827Z,20.20
2022-08-21T20:53:17.230Z,20.20
2022-08-21T20:55:49.322Z,20.10
2022-08-21T20:58:34.419Z,20.10
2022-08-21T21:01:06.650Z,20.10
2022-08-21T21:03:42.289Z,20.10
2022-08-21T21:06:15.482Z,20.10
2022-08-21T21:08:48.941Z,20.00
2022-08-21T21:11:22.329Z,20.00
2022-08-21T21:13:55.471Z,20.00
2022-08-21T21:16:31.257Z,20.00
2022-08-21T21:19:03.581Z,20.00
2022-08-21T21:21:35.305Z,19.90
2022-08-21T21:24:08.365Z,19.90
2022-08-21T21:26:46.125Z,19.80
2022-08-21T21:29:22.185Z,19.80
2022-08-21T21:31:52.509Z,19.70
2022-08-21T21:34:22.073Z,19.70
2022-08-21T21:36:56.483Z,19.70
2022-08-21T21:42:30.308Z,19.70
2022-08-21T21:49:49.491Z,19.80
2022-08-21T21:52:36.125Z,19.70
2022-08-21T21:55:23.601Z,19.70
2022-08-21T21:58:16.972Z,19.70
2022-08-21T22:00:52.118Z,19.70
2022-08-21T22:03:25.310Z,19.70
2022-08-21T22:06:01.281Z,19.70
2022-08-21T22:08:39.395Z,19.70
2022-08-21T22:11:24.264Z,19.60
2022-08-21T22:14:05.030Z,19.60
2022-08-21T22:16:34.455Z,19.60
2022-08-21T22:19:09.365Z,19.60
2022-08-21T22:21:47.468Z,19.50
2022-08-21T22:24:23.161Z,19.50
2022-08-21T22:26:55.529Z,19.50
2022-08-21T22:29:24.933Z,19.40
2022-08-21T22:32:05.603Z,19.40
2022-08-21T22:34:35.426Z,19.40
2022-08-21T22:37:08.148Z,19.40
2022-08-21T22:39:40.335Z,19.40
2022-08-21T22:42:13.661Z,19.30
2022-08-21T22:44:56.151Z,19.30
2022-08-21T22:47:31.499Z,19.30
2022-08-21T22:50:04.552Z,19.20
2022-08-21T22:52:36.772Z,19.30
2022-08-21T22:55:24.210Z,19.20
2022-08-21T22:58:05.918Z,19.20
2022-08-21T23:00:53.812Z,19.10
2022-08-21T23:03:31.766Z,19.10
2022-08-21T23:06:33.890Z,19.10
2022-08-21T23:09:03.065Z,19.00
2022-08-21T23:11:39.828Z,19.00
2022-08-21T23:14:08.167Z,19.00
2022-08-21T23:16:53.983Z,19.00
2022-08-21T23:19:38.028Z,18.90
2022-08-21T23:22:24.157Z,18.90
2022-08-21T23:25:06.559Z,18.80
2022-08-21T23:27:53.693Z,18.80
2022-08-21T23:30:31.956Z,18.80
2022-08-21T23:33:22.884Z,18.80
2022-08-21T23:36:19.677Z,18.80
2022-08-21T23:39:05.067Z,18.80
2022-08-21T23:41:39.798Z,18.80
2022-08-21T23:44:25.483Z,18.70
2022-08-21T23:47:23.316Z,18.70
2022-08-21T23:49:57.788Z,18.70
2022-08-21T23:52:37.660Z,18.70
2022-08-21T23:55:42.309Z,18.70
2022-08-21T23:58:24.300Z,18.60
